Date,TemperatureHighF,TemperatureAvgF,TemperatureLowF,DewpointHighF,DewpointAvgF,DewpointLowF,HumidityHigh,HumidityAvg,HumidityLow,PressureMaxIn,PressureMinIn,WindSpeedMaxMPH,WindSpeedAvgMPH,GustSpeedMaxMPH,PrecipitationSumIn
2013-2-1,46,32,19,24,14,4,65,49,32,30.50,30.17,15,2,15,0.00
2013-2-2,60,44,28,34,29,23,85,59,33,30.29,30.19,10,1,0,0.00
2013-2-3,58,49,38,32,28,23,67,46,27,30.31,29.92,11,2,0,0.00
2013-2-4,70,58,52,41,35,30,53,43,24,29.92,29.79,11,4,0,0.00
2013-2-5,71,57,34,44,36,31,90,50,25,30.03,29.96,6,1,0,0.00
2013-2-6,64,53,39,53,42,34,85,67,50,30.04,29.86,16,4,17,0.00
2013-2-7,61,53,44,56,48,38,93,84,72,30.14,29.81,10,3,0,0.03
2013-2-8,53,43,35,38,34,31,88,73,49,30.33,30.14,8,1,0,0.00
2013-2-9,43,42,40,38,36,34,86,79,73,30.17,29.95,14,4,15,0.03
2013-2-10,63,57,52,53,35,24,96,48,25,29.87,29.64,21,7,21,0.17
2013-2-11,56,47,36,29,26,23,68,45,29,30.23,30.10,8,1,0,0.00
2013-2-12,43,40,34,39,33,27,94,78,55,30.13,29.95,9,1,0,0.25
2013-2-13,56,43,36,38,34,30,95,74,40,30.06,29.94,11,3,15,0.02
2013-2-14,62,48,36,37,32,26,69,54,37,30.21,29.97,9,1,0,0.00
2013-2-15,48,39,31,33,21,11,74,50,24,30.41,30.21,11,2,0,0.00
2013-2-16,47,37,27,29,18,11,76,48,29,30.41,30.08,12,2,14,0.00
2013-2-17,70,53,37,36,30,22,70,44,21,30.08,29.74,19,5,19,0.00
2013-2-18,62,57,44,52,40,27,73,54,38,30.12,29.61,21,7,26,0.00
2013-2-24,61,54,41,41,37,32,71,55,44,29.95,29.75,15,4,16,0.00
2013-2-25,47,41,34,38,36,33,95,84,63,29.81,29.45,14,3,16,1.02
2013-2-26,43,38,34,35,33,30,95,82,70,29.93,29.48,13,3,14,0.10
2013-2-27,50,39,32,34,30,27,90,71,43,30.17,29.92,15,3,17,0.00
2013-2-28,49,40,32,32,29,27,85,67,49,30.24,30.16,14,2,17,0.00